sensor_id;sensor_type;location;lat;lon;timestamp;pressure;altitude;pressure_sealevel;temperature;humidity
40205;BME280;26963;42.666;23.366;2023-06-10T00:02:04;94560.97;;;20.36;67.38
40205;BME280;26963;42.666;23.366;2023-06-10T00:04:30;94550.09;;;20.36;68.67
40205;BME280;26963;42.666;23.366;2023-06-10T00:06:55;94509.69;;;20.08;68.42
40205;BME280;26963;42.666;23.366;2023-06-10T00:09:22;94558.38;;;20.44;68.73
40205;BME280;26963;42.666;23.366;2023-06-10T00:11:48;94550.41;;;20.31;68.31
40205;BME280;26963;42.666;23.366;2023-06-10T00:14:13;94541.72;;;20.22;68.35
40205;BME280;26963;42.666;23.366;2023-06-10T00:16:39;94573.72;;;20.32;67.83
40205;BME280;26963;42.666;23.366;2023-06-10T00:19:05;94557.06;;;20.11;68.85
40205;BME280;26963;42.666;23.366;2023-06-10T00:21:32;94563.41;;;20.18;69.01
40205;BME280;26963;42.666;23.366;2023-06-10T00:24:06;94540.63;;;20.03;69.48
40205;BME280;26963;42.666;23.366;2023-06-10T00:26:32;94549.94;;;20.02;69.00
40205;BME280;26963;42.666;23.366;2023-06-10T00:28:59;94567.50;;;20.09;68.94
40205;BME280;26963;42.666;23.366;2023-06-10T00:31:25;94568.63;;;20.08;70.18
40205;BME280;26963;42.666;23.366;2023-06-10T00:33:52;94465.16;;;19.43;70.45
40205;BME280;26963;42.666;23.366;2023-06-10T00:36:17;94573.75;;;20.13;70.35
40205;BME280;26963;42.666;23.366;2023-06-10T00:38:43;94570.22;;;20.09;70.21
40205;BME280;26963;42.666;23.366;2023-06-10T00:41:09;94557.72;;;20.04;70.04
40205;BME280;26963;42.666;23.366;2023-06-10T00:43:34;94578.91;;;20.18;69.73
40205;BME280;26963;42.666;23.366;2023-06-10T00:46:00;94570.28;;;20.12;69.54
40205;BME280;26963;42.666;23.366;2023-06-10T00:48:27;94570.34;;;20.16;69.13
40205;BME280;26963;42.666;23.366;2023-06-10T00:50:52;94570.28;;;20.12;68.45
40205;BME280;26963;42.666;23.366;2023-06-10T00:53:18;94566.13;;;19.95;69.07
40205;BME280;26963;42.666;23.366;2023-06-10T00:55:44;94524.63;;;19.75;69.87
40205;BME280;26963;42.666;23.366;2023-06-10T00:58:10;94545.75;;;19.85;70.62
40205;BME280;26963;42.666;23.366;2023-06-10T01:00:36;94575.53;;;20.01;70.35
40205;BME280;26963;42.666;23.366;2023-06-10T01:03:02;94518.28;;;19.67;69.95
40205;BME280;26963;42.666;23.366;2023-06-10T01:05:34;94565.81;;;20.00;69.60
40205;BME280;26963;42.666;23.366;2023-06-10T01:08:06;94526.13;;;19.72;69.88
40205;BME280;26963;42.666;23.366;2023-06-10T01:10:39;94578.59;;;20.00;70.32
40205;BME280;26963;42.666;23.366;2023-06-10T01:13:07;94562.81;;;19.86;71.21
40205;BME280;26963;42.666;23.366;2023-06-10T01:15:37;94470.28;;;19.29;71.53
40205;BME280;26963;42.666;23.366;2023-06-10T01:18:04;94578.25;;;20.01;70.95
40205;BME280;26963;42.666;23.366;2023-06-10T01:20:31;94565.25;;;19.91;71.65
40205;BME280;26963;42.666;23.366;2023-06-10T01:22:58;94589.59;;;20.07;70.46
40205;BME280;26963;42.666;23.366;2023-06-10T01:25:26;94581.06;;;20.09;71.26
40205;BME280;26963;42.666;23.366;2023-06-10T01:28:14;94579.50;;;20.08;70.14
40205;BME280;26963;42.666;23.366;2023-06-10T01:33:12;94577.88;;;20.03;70.19
40205;BME280;26963;42.666;23.366;2023-06-10T01:35:42;94577.06;;;20.02;71.08
40205;BME280;26963;42.666;23.366;2023-06-10T01:38:09;94519.91;;;19.72;71.22
40205;BME280;26963;42.666;23.366;2023-06-10T01:40:36;94487.03;;;19.54;70.95
40205;BME280;26963;42.666;23.366;2023-06-10T01:43:02;94557.66;;;20.00;70.64
40205;BME280;26963;42.666;23.366;2023-06-10T01:45:27;94498.13;;;19.68;70.35
40205;BME280;26963;42.666;23.366;2023-06-10T01:47:53;94494.56;;;19.64;70.58
40205;BME280;26963;42.666;23.366;2023-06-10T01:50:18;94507.53;;;19.75;70.85
40205;BME280;26963;42.666;23.366;2023-06-10T01:52:45;94513.09;;;19.82;69.90
40205;BME280;26963;42.666;23.366;2023-06-10T01:55:10;94561.69;;;20.10;70.56
40205;BME280;26963;42.666;23.366;2023-06-10T01:57:36;94502.53;;;19.77;71.88
40205;BME280;26963;42.666;23.366;2023-06-10T02:00:01;94512.81;;;19.87;71.33
40205;BME280;26963;42.666;23.366;2023-06-10T02:02:28;94539.81;;;19.99;70.62
40205;BME280;26963;42.666;23.366;2023-06-10T02:04:54;94550.00;;;20.06;70.35
40205;BME280;26963;42.666;23.366;2023-06-10T02:07:19;94554.66;;;20.06;70.98
40205;BME280;26963;42.666;23.366;2023-06-10T02:09:45;94548.78;;;20.03;70.78
40205;BME280;26963;42.666;23.366;2023-06-10T02:12:10;94540.94;;;19.98;69.95
40205;BME280;26963;42.666;23.366;2023-06-10T02:14:36;94546.88;;;20.04;69.69
40205;BME280;26963;42.666;23.366;2023-06-10T02:17:02;94546.50;;;20.06;69.62
40205;BME280;26963;42.666;23.366;2023-06-10T02:19:28;94554.75;;;20.13;69.43
40205;BME280;26963;42.666;23.366;2023-06-10T02:21:54;94542.28;;;20.08;69.84
40205;BME280;26963;42.666;23.366;2023-06-10T02:24:19;94503.53;;;19.88;69.66
40205;BME280;26963;42.666;23.366;2023-06-10T02:26:45;94498.47;;;19.86;69.90
40205;BME280;26963;42.666;23.366;2023-06-10T02:29:11;94548.97;;;20.14;70.02
40205;BME280;26963;42.666;23.366;2023-06-10T02:31:37;94471.28;;;19.63;69.71
40205;BME280;26963;42.666;23.366;2023-06-10T02:34:03;94527.56;;;20.09;68.82
40205;BME280;26963;42.666;23.366;2023-06-10T02:36:29;94513.34;;;19.96;68.73
40205;BME280;26963;42.666;23.366;2023-06-10T02:38:54;94475.69;;;19.71;68.76
40205;BME280;26963;42.666;23.366;2023-06-10T02:41:21;94546.19;;;20.11;70.35
40205;BME280;26963;42.666;23.366;2023-06-10T02:43:47;94513.78;;;19.98;69.99
40205;BME280;26963;42.666;23.366;2023-06-10T02:46:15;94511.06;;;19.98;70.59
40205;BME280;26963;42.666;23.366;2023-06-10T02:48:42;94490.69;;;19.85;70.93
40205;BME280;26963;42.666;23.366;2023-06-10T02:51:09;94534.50;;;20.07;71.17
40205;BME280;26963;42.666;23.366;2023-06-10T02:53:35;94367.59;;;19.04;70.75
40205;BME280;26963;42.666;23.366;2023-06-10T02:56:01;94463.41;;;19.78;70.74
40205;BME280;26963;42.666;23.366;2023-06-10T02:58:27;94525.63;;;20.10;71.21
40205;BME280;26963;42.666;23.366;2023-06-10T03:00:52;94511.19;;;20.06;70.34
40205;BME280;26963;42.666;23.366;2023-06-10T03:03:18;94458.59;;;19.67;69.56
40205;BME280;26963;42.666;23.366;2023-06-10T03:05:43;94498.53;;;19.90;69.16
40205;BME280;26963;42.666;23.366;2023-06-10T03:08:09;94514.59;;;19.99;68.72
40205;BME280;26963;42.666;23.366;2023-06-10T03:10:35;94527.91;;;20.08;70.80
40205;BME280;26963;42.666;23.366;2023-06-10T03:13:00;94499.31;;;19.91;70.38
40205;BME280;26963;42.666;23.366;2023-06-10T03:15:26;94531.47;;;20.12;70.04
40205;BME280;26963;42.666;23.366;2023-06-10T03:17:54;94482.13;;;19.83;69.14
40205;BME280;26963;42.666;23.366;2023-06-10T03:20:20;94539.00;;;20.22;68.91
40205;BME280;26963;42.666;23.366;2023-06-10T03:22:47;94496.97;;;19.89;69.60
40205;BME280;26963;42.666;23.366;2023-06-10T03:25:12;94518.06;;;19.99;69.90
40205;BME280;26963;42.666;23.366;2023-06-10T03:27:40;94541.91;;;20.10;70.62
40205;BME280;26963;42.666;23.366;2023-06-10T03:30:06;94518.75;;;19.93;70.46
40205;BME280;26963;42.666;23.366;2023-06-10T03:32:32;94557.47;;;20.13;71.14
40205;BME280;26963;42.666;23.366;2023-06-10T03:34:58;94534.38;;;19.99;72.05
40205;BME280;26963;42.666;23.366;2023-06-10T03:37:24;94491.25;;;19.75;72.57
40205;BME280;26963;42.666;23.366;2023-06-10T03:39:50;94537.63;;;20.09;71.88
40205;BME280;26963;42.666;23.366;2023-06-10T03:42:16;94564.28;;;20.26;71.17
40205;BME280;26963;42.666;23.366;2023-06-10T03:44:41;94474.88;;;19.67;70.43
40205;BME280;26963;42.666;23.366;2023-06-10T03:47:07;94563.09;;;20.24;70.09
40205;BME280;26963;42.666;23.366;2023-06-10T03:49:32;94504.53;;;19.80;69.98
40205;BME280;26963;42.666;23.366;2023-06-10T03:51:58;94540.09;;;19.94;70.54
40205;BME280;26963;42.666;23.366;2023-06-10T03:54:24;94552.84;;;19.90;70.87
40205;BME280;26963;42.666;23.366;2023-06-10T03:56:50;94555.56;;;19.90;71.03
40205;BME280;26963;42.666;23.366;2023-06-10T03:59:16;94567.38;;;19.82;71.74
40205;BME280;26963;42.666;23.366;2023-06-10T04:01:42;94547.41;;;19.70;71.41
40205;BME280;26963;42.666;23.366;2023-06-10T04:04:09;94550.84;;;19.67;71.88
40205;BME280;26963;42.666;23.366;2023-06-10T04:06:34;94533.88;;;19.51;71.68
40205;BME280;26963;42.666;23.366;2023-06-10T04:09:00;94556.72;;;19.50;72.21
40205;BME280;26963;42.666;23.366;2023-06-10T04:11:25;94560.00;;;19.59;73.32
40205;BME280;26963;42.666;23.366;2023-06-10T04:13:51;94544.31;;;19.49;72.97
40205;BME280;26963;42.666;23.366;2023-06-10T04:16:16;94486.81;;;19.00;72.60
40205;BME280;26963;42.666;23.366;2023-06-10T04:18:42;94563.00;;;19.54;72.75
40205;BME280;26963;42.666;23.366;2023-06-10T04:21:07;94557.44;;;19.47;72.72
40205;BME280;26963;42.666;23.366;2023-06-10T04:23:35;94560.00;;;19.59;72.13
40205;BME280;26963;42.666;23.366;2023-06-10T04:26:02;94498.84;;;19.22;70.77
40205;BME280;26963;42.666;23.366;2023-06-10T04:28:27;94508.06;;;19.18;71.26
40205;BME280;26963;42.666;23.366;2023-06-10T04:30:53;94503.63;;;19.10;71.04
40205;BME280;26963;42.666;23.366;2023-06-10T04:33:19;94501.50;;;18.99;70.71
40205;BME280;26963;42.666;23.366;2023-06-10T04:35:44;94553.94;;;19.27;71.01
40205;BME280;26963;42.666;23.366;2023-06-10T04:38:13;94543.72;;;19.20;71.76
40205;BME280;26963;42.666;23.366;2023-06-10T04:40:39;94561.56;;;19.21;72.37
40205;BME280;26963;42.666;23.366;2023-06-10T04:43:05;94485.91;;;18.77;73.12
40205;BME280;26963;42.666;23.366;2023-06-10T04:45:30;94503.34;;;18.95;73.71
40205;BME280;26963;42.666;23.366;2023-06-10T04:47:56;94497.66;;;19.00;72.79
40205;BME280;26963;42.666;23.366;2023-06-10T04:50:23;94546.09;;;19.41;72.51
40205;BME280;26963;42.666;23.366;2023-06-10T04:52:49;94563.16;;;19.61;72.25
40205;BME280;26963;42.666;23.366;2023-06-10T04:55:15;94543.31;;;19.57;71.71
40205;BME280;26963;42.666;23.366;2023-06-10T04:57:41;94553.38;;;19.80;70.82
40205;BME280;26963;42.666;23.366;2023-06-10T05:00:07;94506.03;;;19.54;69.88
40205;BME280;26963;42.666;23.366;2023-06-10T05:02:33;94533.25;;;19.81;69.30
40205;BME280;26963;42.666;23.366;2023-06-10T05:04:59;94557.78;;;20.08;69.45
40205;BME280;26963;42.666;23.366;2023-06-10T05:07:25;94558.97;;;20.10;68.97
40205;BME280;26963;42.666;23.366;2023-06-10T05:09:51;94546.19;;;20.11;68.89
40205;BME280;26963;42.666;23.366;2023-06-10T05:12:16;94557.28;;;20.25;69.24
40205;BME280;26963;42.666;23.366;2023-06-10T05:14:42;94544.75;;;20.17;68.92
40205;BME280;26963;42.666;23.366;2023-06-10T05:17:07;94526.81;;;20.12;68.98
40205;BME280;26963;42.666;23.366;2023-06-10T05:19:33;94484.03;;;19.82;68.97
40205;BME280;26963;42.666;23.366;2023-06-10T05:22:01;94540.28;;;20.28;68.78
40205;BME280;26963;42.666;23.366;2023-06-10T05:24:27;94546.34;;;20.45;68.68
40205;BME280;26963;42.666;23.366;2023-06-10T05:26:52;94432.72;;;19.74;68.50
40205;BME280;26963;42.666;23.366;2023-06-10T05:29:18;94525.63;;;20.36;68.43
40205;BME280;26963;42.666;23.366;2023-06-10T05:31:43;94557.78;;;20.58;68.50
40205;BME280;26963;42.666;23.366;2023-06-10T05:34:09;94560.16;;;20.59;68.20
40205;BME280;26963;42.666;23.366;2023-06-10T05:36:35;94504.53;;;20.26;68.47
40205;BME280;26963;42.666;23.366;2023-06-10T05:39:00;94532.03;;;20.48;68.55
40205;BME280;26963;42.666;23.366;2023-06-10T05:41:26;94545.72;;;20.55;68.26
40205;BME280;26963;42.666;23.366;2023-06-10T05:43:51;94563.53;;;20.76;68.79
40205;BME280;26963;42.666;23.366;2023-06-10T05:46:17;94540.03;;;20.64;68.44
40205;BME280;26963;42.666;23.366;2023-06-10T05:48:42;94510.28;;;20.48;67.92
40205;BME280;26963;42.666;23.366;2023-06-10T05:51:08;94544.97;;;20.81;67.84
40205;BME280;26963;42.666;23.366;2023-06-10T05:53:33;94504.28;;;20.62;68.65
40205;BME280;26963;42.666;23.366;2023-06-10T05:55:59;94459.72;;;20.40;67.37
40205;BME280;26963;42.666;23.366;2023-06-10T05:58:25;94562.53;;;21.18;67.51
40205;BME280;26963;42.666;23.366;2023-06-10T06:00:50;94542.53;;;21.33;66.72
40205;BME280;26963;42.666;23.366;2023-06-10T06:03:16;94569.34;;;21.65;66.18
40205;BME280;26963;42.666;23.366;2023-06-10T06:05:42;94535.25;;;21.45;65.96
40205;BME280;26963;42.666;23.366;2023-06-10T06:08:08;94557.63;;;21.61;66.13
40205;BME280;26963;42.666;23.366;2023-06-10T06:10:33;94549.00;;;21.56;66.34
40205;BME280;26963;42.666;23.366;2023-06-10T06:13:00;94572.53;;;21.75;66.44
40205;BME280;26963;42.666;23.366;2023-06-10T06:15:25;94567.94;;;21.79;66.23
40205;BME280;26963;42.666;23.366;2023-06-10T06:17:51;94567.22;;;21.86;66.32
40205;BME280;26963;42.666;23.366;2023-06-10T06:20:21;94559.47;;;21.88;66.11
40205;BME280;26963;42.666;23.366;2023-06-10T06:22:47;94510.22;;;21.62;65.34
40205;BME280;26963;42.666;23.366;2023-06-10T06:25:12;94513.31;;;21.64;64.93
40205;BME280;26963;42.666;23.366;2023-06-10T06:27:38;94565.91;;;22.10;64.62
40205;BME280;26963;42.666;23.366;2023-06-10T06:30:05;94538.91;;;21.97;63.31
40205;BME280;26963;42.666;23.366;2023-06-10T06:32:30;94528.38;;;21.92;63.00
40205;BME280;26963;42.666;23.366;2023-06-10T06:34:57;94558.19;;;22.19;62.99
40205;BME280;26963;42.666;23.366;2023-06-10T06:37:23;94550.88;;;22.30;63.41
40205;BME280;26963;42.666;23.366;2023-06-10T06:39:53;94564.81;;;22.67;63.27
40205;BME280;26963;42.666;23.366;2023-06-10T06:42:19;94555.09;;;23.36;60.35
40205;BME280;26963;42.666;23.366;2023-06-10T06:44:46;94550.84;;;23.49;59.14
40205;BME280;26963;42.666;23.366;2023-06-10T06:47:11;94542.63;;;23.42;59.82
40205;BME280;26963;42.666;23.366;2023-06-10T06:49:37;94505.81;;;23.10;60.51
40205;BME280;26963;42.666;23.366;2023-06-10T06:52:03;94559.00;;;23.42;60.38
40205;BME280;26963;42.666;23.366;2023-06-10T06:54:28;94553.56;;;23.42;59.66
40205;BME280;26963;42.666;23.366;2023-06-10T06:56:54;94493.34;;;23.06;58.99
40205;BME280;26963;42.666;23.366;2023-06-10T06:59:20;94559.09;;;23.60;58.95
40205;BME280;26963;42.666;23.366;2023-06-10T07:01:46;94548.59;;;23.80;58.42
40205;BME280;26963;42.666;23.366;2023-06-10T07:04:15;94544.31;;;23.86;57.24
40205;BME280;26963;42.666;23.366;2023-06-10T07:06:40;94531.03;;;23.85;56.56
40205;BME280;26963;42.666;23.366;2023-06-10T07:09:07;94558.81;;;24.05;56.50
40205;BME280;26963;42.666;23.366;2023-06-10T07:11:34;94535.81;;;24.06;55.60
40205;BME280;26963;42.666;23.366;2023-06-10T07:14:00;94543.63;;;24.18;54.25
40205;BME280;26963;42.666;23.366;2023-06-10T07:16:25;94551.81;;;24.54;54.84
40205;BME280;26963;42.666;23.366;2023-06-10T07:18:52;94533.44;;;24.62;54.31
40205;BME280;26963;42.666;23.366;2023-06-10T07:21:18;94484.59;;;24.61;53.18
40205;BME280;26963;42.666;23.366;2023-06-10T07:23:44;94541.97;;;25.18;52.74
40205;BME280;26963;42.666;23.366;2023-06-10T07:26:10;94536.50;;;25.18;52.31
40205;BME280;26963;42.666;23.366;2023-06-10T07:28:39;94537.97;;;25.41;51.43
40205;BME280;26963;42.666;23.366;2023-06-10T07:31:05;94509.56;;;25.84;49.75
40205;BME280;26963;42.666;23.366;2023-06-10T07:33:31;94535.50;;;26.32;49.40
40205;BME280;26963;42.666;23.366;2023-06-10T07:35:56;94531.91;;;26.38;50.21
40205;BME280;26963;42.666;23.366;2023-06-10T07:38:22;94482.97;;;25.84;50.69
40205;BME280;26963;42.666;23.366;2023-06-10T07:40:47;94521.22;;;25.99;50.22
40205;BME280;26963;42.666;23.366;2023-06-10T07:43:13;94494.16;;;26.99;47.06
40205;BME280;26963;42.666;23.366;2023-06-10T07:45:42;94539.00;;;28.91;42.70
40205;BME280;26963;42.666;23.366;2023-06-10T07:48:08;94537.75;;;30.95;37.25
40205;BME280;26963;42.666;23.366;2023-06-10T07:50:33;94526.22;;;30.18;37.17
40205;BME280;26963;42.666;23.366;2023-06-10T07:52:59;94538.78;;;30.02;36.64
40205;BME280;26963;42.666;23.366;2023-06-10T07:55:25;94534.50;;;30.34;35.36
40205;BME280;26963;42.666;23.366;2023-06-10T07:57:54;94533.63;;;30.37;34.32
40205;BME280;26963;42.666;23.366;2023-06-10T08:00:20;94537.94;;;30.88;34.91
40205;BME280;26963;42.666;23.366;2023-06-10T08:02:46;94527.22;;;29.91;37.43
40205;BME280;26963;42.666;23.366;2023-06-10T08:05:12;94516.88;;;29.38;38.56
40205;BME280;26963;42.666;23.366;2023-06-10T08:07:39;94529.41;;;29.80;38.49
40205;BME280;26963;42.666;23.366;2023-06-10T08:10:05;94525.34;;;33.00;35.47
40205;BME280;26963;42.666;23.366;2023-06-10T08:12:32;94528.81;;;35.03;29.16
40205;BME280;26963;42.666;23.366;2023-06-10T08:14:57;94526.75;;;36.63;26.20
40205;BME280;26963;42.666;23.366;2023-06-10T08:17:23;94529.88;;;37.98;26.06
40205;BME280;26963;42.666;23.366;2023-06-10T08:19:49;94486.75;;;38.70;23.19
40205;BME280;26963;42.666;23.366;2023-06-10T08:22:15;94509.59;;;39.57;20.89
40205;BME280;26963;42.666;23.366;2023-06-10T08:24:40;94507.78;;;40.44;20.60
40205;BME280;26963;42.666;23.366;2023-06-10T08:27:06;94516.28;;;41.04;20.37
40205;BME280;26963;42.666;23.366;2023-06-10T08:29:32;94512.13;;;41.71;19.73
40205;BME280;26963;42.666;23.366;2023-06-10T08:31:57;94507.06;;;41.93;17.70
40205;BME280;26963;42.666;23.366;2023-06-10T08:34:24;94466.72;;;41.90;18.83
40205;BME280;26963;42.666;23.366;2023-06-10T08:36:49;94470.00;;;41.83;17.03
40205;BME280;26963;42.666;23.366;2023-06-10T08:39:19;94497.88;;;41.86;18.26
40205;BME280;26963;42.666;23.366;2023-06-10T08:41:51;94465.97;;;41.84;17.69
40205;BME280;26963;42.666;23.366;2023-06-10T08:44:28;94495.31;;;42.11;16.10
40205;BME280;26963;42.666;23.366;2023-06-10T08:46:53;94499.38;;;41.59;17.40
40205;BME280;26963;42.666;23.366;2023-06-10T08:49:21;94481.22;;;40.77;16.97
40205;BME280;26963;42.666;23.366;2023-06-10T08:51:50;94478.13;;;40.69;17.04
40205;BME280;26963;42.666;23.366;2023-06-10T08:54:20;94492.34;;;40.54;17.70
40205;BME280;26963;42.666;23.366;2023-06-10T08:56:49;94441.38;;;40.56;18.00
40205;BME280;26963;42.666;23.366;2023-06-10T08:59:16;94483.69;;;41.18;18.12
40205;BME280;26963;42.666;23.366;2023-06-10T09:01:43;94482.25;;;41.46;16.68
40205;BME280;26963;42.666;23.366;2023-06-10T09:04:09;94438.09;;;41.57;16.28
40205;BME280;26963;42.666;23.366;2023-06-10T09:06:36;94477.94;;;41.96;16.55
40205;BME280;26963;42.666;23.366;2023-06-10T09:09:02;94477.94;;;41.96;15.60
40205;BME280;26963;42.666;23.366;2023-06-10T09:11:28;94399.03;;;41.54;15.94
40205;BME280;26963;42.666;23.366;2023-06-10T09:13:53;94431.72;;;41.57;16.15
40205;BME280;26963;42.666;23.366;2023-06-10T09:16:19;94460.28;;;41.50;15.60
40205;BME280;26963;42.666;23.366;2023-06-10T09:18:45;94462.03;;;41.36;16.79
40205;BME280;26963;42.666;23.366;2023-06-10T09:21:10;94466.19;;;41.52;16.62
40205;BME280;26963;42.666;23.366;2023-06-10T09:23:37;94462.97;;;40.99;16.25
40205;BME280;26963;42.666;23.366;2023-06-10T09:26:02;94434.28;;;40.23;18.05
40205;BME280;26963;42.666;23.366;2023-06-10T09:28:33;94470.41;;;39.30;18.73
40205;BME280;26963;42.666;23.366;2023-06-10T09:31:03;94427.50;;;37.95;20.75
40205;BME280;26963;42.666;23.366;2023-06-10T09:33:30;94413.75;;;37.01;21.56
40205;BME280;26963;42.666;23.366;2023-06-10T09:35:56;94444.19;;;36.17;22.48
40205;BME280;26963;42.666;23.366;2023-06-10T09:38:29;94423.81;;;34.88;22.76
40205;BME280;26963;42.666;23.366;2023-06-10T09:40:56;94472.56;;;34.61;24.78
40205;BME280;26963;42.666;23.366;2023-06-10T09:43:21;94428.16;;;33.71;25.32
40205;BME280;26963;42.666;23.366;2023-06-10T09:45:49;94444.28;;;33.31;25.46
40205;BME280;26963;42.666;23.366;2023-06-10T09:48:14;94451.59;;;32.81;26.85
40205;BME280;26963;42.666;23.366;2023-06-10T09:50:44;94378.75;;;31.62;27.05
40205;BME280;26963;42.666;23.366;2023-06-10T09:53:11;94462.94;;;31.19;27.49
40205;BME280;26963;42.666;23.366;2023-06-10T09:55:38;94402.03;;;30.34;27.94
40205;BME280;26963;42.666;23.366;2023-06-10T09:58:03;94444.31;;;30.15;28.66
40205;BME280;26963;42.666;23.366;2023-06-10T10:00:32;94453.28;;;30.02;29.47
40205;BME280;26963;42.666;23.366;2023-06-10T10:02:58;94432.38;;;29.85;29.88
40205;BME280;26963;42.666;23.366;2023-06-10T10:05:24;94389.97;;;29.45;30.35
40205;BME280;26963;42.666;23.366;2023-06-10T10:07:50;94410.63;;;29.54;29.92
40205;BME280;26963;42.666;23.366;2023-06-10T10:10:18;94432.34;;;29.52;30.69
40205;BME280;26963;42.666;23.366;2023-06-10T10:12:46;94440.78;;;29.61;31.21
40205;BME280;26963;42.666;23.366;2023-06-10T10:15:12;94419.78;;;29.51;28.54
40205;BME280;26963;42.666;23.366;2023-06-10T10:17:40;94414.84;;;29.22;28.89
40205;BME280;26963;42.666;23.366;2023-06-10T10:20:07;94432.94;;;29.23;30.31
40205;BME280;26963;42.666;23.366;2023-06-10T10:22:43;94412.19;;;28.98;31.10
40205;BME280;26963;42.666;23.366;2023-06-10T10:25:17;94431.25;;;28.89;32.06
40205;BME280;26963;42.666;23.366;2023-06-10T10:27:57;94393.78;;;28.51;32.75
40205;BME280;26963;42.666;23.366;2023-06-10T10:30:25;94437.25;;;28.84;31.91
40205;BME280;26963;42.666;23.366;2023-06-10T10:33:00;94409.53;;;28.74;32.31
40205;BME280;26963;42.666;23.366;2023-06-10T10:35:31;94411.47;;;28.94;32.98
40205;BME280;26963;42.666;23.366;2023-06-10T10:37:58;94424.31;;;29.21;32.94
40205;BME280;26963;42.666;23.366;2023-06-10T10:40:24;94403.97;;;29.15;31.53
40205;BME280;26963;42.666;23.366;2023-06-10T10:42:51;94422.59;;;29.27;32.38
40205;BME280;26963;42.666;23.366;2023-06-10T10:45:17;94347.53;;;28.86;32.82
40205;BME280;26963;42.666;23.366;2023-06-10T10:47:45;94278.59;;;28.33;31.51
40205;BME280;26963;42.666;23.366;2023-06-10T10:50:18;94366.09;;;28.82;31.93
40205;BME280;26963;42.666;23.366;2023-06-10T10:52:58;94408.44;;;29.08;33.07
40205;BME280;26963;42.666;23.366;2023-06-10T10:55:25;94383.94;;;28.94;33.00
40205;BME280;26963;42.666;23.366;2023-06-10T11:00:31;94383.38;;;28.83;32.67
40205;BME280;26963;42.666;23.366;2023-06-10T11:05:39;94390.53;;;28.36;33.10
40205;BME280;26963;42.666;23.366;2023-06-10T11:08:07;94401.31;;;28.03;33.44
40205;BME280;26963;42.666;23.366;2023-06-10T11:10:37;94396.03;;;27.89;34.09
40205;BME280;26963;42.666;23.366;2023-06-10T11:13:08;94377.69;;;27.82;35.43
40205;BME280;26963;42.666;23.366;2023-06-10T11:15:44;94382.47;;;28.02;35.74
40205;BME280;26963;42.666;23.366;2023-06-10T11:18:35;94325.16;;;27.76;33.92
40205;BME280;26963;42.666;23.366;2023-06-10T11:21:04;94385.19;;;28.05;33.91
40205;BME280;26963;42.666;23.366;2023-06-10T11:23:37;94365.69;;;27.96;33.00
40205;BME280;26963;42.666;23.366;2023-06-10T11:28:35;94368.44;;;27.96;34.30
40205;BME280;26963;42.666;23.366;2023-06-10T11:31:00;94323.06;;;27.60;34.65
40205;BME280;26963;42.666;23.366;2023-06-10T11:33:26;94371.72;;;27.87;34.80
40205;BME280;26963;42.666;23.366;2023-06-10T11:35:52;94356.94;;;27.77;34.23
40205;BME280;26963;42.666;23.366;2023-06-10T11:38:18;94355.28;;;27.83;34.12
40205;BME280;26963;42.666;23.366;2023-06-10T11:40:50;94364.59;;;27.90;34.67
40205;BME280;26963;42.666;23.366;2023-06-10T11:43:20;94344.28;;;27.83;33.93
40205;BME280;26963;42.666;23.366;2023-06-10T11:45:45;94343.44;;;27.87;34.61
40205;BME280;26963;42.666;23.366;2023-06-10T11:48:12;94338.06;;;27.79;34.67
40205;BME280;26963;42.666;23.366;2023-06-10T11:50:38;94331.72;;;27.82;34.84
40205;BME280;26963;42.666;23.366;2023-06-10T11:53:08;94326.47;;;27.68;33.59
40205;BME280;26963;42.666;23.366;2023-06-10T11:55:43;94320.25;;;27.64;34.11
40205;BME280;26963;42.666;23.366;2023-06-10T11:58:27;94275.81;;;27.45;34.67
40205;BME280;26963;42.666;23.366;2023-06-10T12:00:54;94350.72;;;27.97;34.56
40205;BME280;26963;42.666;23.366;2023-06-10T12:03:21;94292.78;;;27.64;34.63
40205;BME280;26963;42.666;23.366;2023-06-10T12:06:01;94311.03;;;27.98;34.63
40205;BME280;26963;42.666;23.366;2023-06-10T12:08:27;94331.34;;;28.28;33.81
40205;BME280;26963;42.666;23.366;2023-06-10T12:10:54;94344.81;;;28.42;33.45
40205;BME280;26963;42.666;23.366;2023-06-10T12:13:20;94342.78;;;28.46;33.74
40205;BME280;26963;42.666;23.366;2023-06-10T12:15:46;94278.38;;;28.04;33.17
40205;BME280;26963;42.666;23.366;2023-06-10T12:18:19;94332.41;;;28.34;33.09
40205;BME280;26963;42.666;23.366;2023-06-10T12:20:45;94335.50;;;28.36;32.31
40205;BME280;26963;42.666;23.366;2023-06-10T12:23:12;94315.22;;;28.30;32.17
40205;BME280;26963;42.666;23.366;2023-06-10T12:25:38;94273.63;;;28.04;31.48
40205;BME280;26963;42.666;23.366;2023-06-10T12:28:05;94262.16;;;28.09;31.87
40205;BME280;26963;42.666;23.366;2023-06-10T12:30:31;94307.38;;;28.48;30.65
40205;BME280;26963;42.666;23.366;2023-06-10T12:32:57;94334.16;;;28.68;30.16
40205;BME280;26963;42.666;23.366;2023-06-10T12:35:25;94320.84;;;28.63;31.39
40205;BME280;26963;42.666;23.366;2023-06-10T12:38:09;94309.97;;;28.56;31.23
40205;BME280;26963;42.666;23.366;2023-06-10T12:40:38;94316.84;;;28.68;31.18
40205;BME280;26963;42.666;23.366;2023-06-10T12:43:09;94266.41;;;28.34;31.32
40205;BME280;26963;42.666;23.366;2023-06-10T12:45:36;94261.22;;;28.36;30.39
40205;BME280;26963;42.666;23.366;2023-06-10T12:48:11;94306.63;;;28.68;31.11
40205;BME280;26963;42.666;23.366;2023-06-10T12:50:39;94290.28;;;28.57;30.40
40205;BME280;26963;42.666;23.366;2023-06-10T12:53:05;94254.53;;;28.37;29.42
40205;BME280;26963;42.666;23.366;2023-06-10T12:55:31;94287.53;;;28.57;29.22
40205;BME280;26963;42.666;23.366;2023-06-10T12:57:58;94316.06;;;28.67;29.84
40205;BME280;26963;42.666;23.366;2023-06-10T13:00:24;94306.03;;;28.57;29.14